Time;durP1;ratioP1;P1;durP2;ratioP2;P2;SDS_P1;SDS_P2;PMS_P1;PMS_P2;Temp;Humidity;BMP_temperature;BMP_pressure;BME280_temperature;BME280_humidity;BME280_pressure;Samples;Min_cycle;Max_cycle;Signal;HPM_P1;HPM_P2
2021/01/21 00:01:32;;;;;;;2.10;1.00;;;11.30;99.90;;;;;;5125208;27;20196;-78
2021/01/21 00:03:58;;;;;;;4.20;1.20;;;11.20;99.90;;;;;;5126541;27;20360;-78
2021/01/21 00:06:24;;;;;;;1.70;1.00;;;11.40;99.90;;;;;;5128753;27;20244;-77
2021/01/21 00:08:51;;;;;;;3.90;1.20;;;11.50;99.90;;;;;;5125016;27;20284;-78
2021/01/21 00:11:18;;;;;;;3.53;1.10;;;11.60;99.90;;;;;;5110488;27;20241;-78
2021/01/21 00:13:44;;;;;;;4.63;1.30;;;11.60;99.90;;;;;;5095354;28;20225;-78
2021/01/21 00:16:10;;;;;;;1.60;0.90;;;11.70;99.90;;;;;;5100115;28;20195;-78
2021/01/21 00:18:37;;;;;;;4.10;1.10;;;11.80;99.90;;;;;;5096348;28;20209;-78
2021/01/21 00:21:03;;;;;;;3.20;1.03;;;11.80;99.90;;;;;;5098258;27;20232;-77
2021/01/21 00:23:30;;;;;;;1.93;1.10;;;11.70;99.90;;;;;;5096070;28;20199;-78
2021/01/21 00:25:58;;;;;;;2.17;1.10;;;11.60;99.90;;;;;;5097236;28;20282;-78
2021/01/21 00:28:24;;;;;;;2.57;1.00;;;11.50;99.90;;;;;;5095396;28;20311;-78
2021/01/21 00:30:51;;;;;;;4.57;1.10;;;11.50;99.90;;;;;;5094817;28;20308;-78
2021/01/21 00:33:17;;;;;;;3.27;1.07;;;11.60;99.90;;;;;;5097130;28;20304;-77
2021/01/21 00:35:43;;;;;;;2.20;1.00;;;11.60;99.90;;;;;;5098177;28;20304;-78
2021/01/21 00:38:10;;;;;;;1.70;1.00;;;11.70;99.90;;;;;;5096564;28;20210;-77
2021/01/21 00:40:36;;;;;;;7.67;1.20;;;11.80;99.90;;;;;;5095210;28;20201;-78
2021/01/21 00:43:04;;;;;;;3.93;1.10;;;11.80;99.90;;;;;;5096195;28;20198;-78
2021/01/21 00:45:30;;;;;;;2.23;1.13;;;11.70;99.90;;;;;;5094577;28;20657;-77
2021/01/21 00:47:56;;;;;;;5.23;1.20;;;11.70;99.90;;;;;;5099295;28;20732;-78
2021/01/21 00:50:23;;;;;;;2.57;0.90;;;11.70;99.90;;;;;;5096663;28;20201;-78
2021/01/21 00:52:49;;;;;;;4.03;1.33;;;11.80;99.90;;;;;;5097120;28;20661;-78
2021/01/21 00:55:15;;;;;;;2.90;1.10;;;11.80;99.90;;;;;;5095168;28;20233;-78
2021/01/21 00:57:42;;;;;;;2.23;0.90;;;11.70;99.90;;;;;;5095160;28;20229;-77
2021/01/21 01:00:11;;;;;;;2.93;1.10;;;11.70;99.90;;;;;;5094364;28;20747;-78
2021/01/21 01:02:38;;;;;;;2.93;1.40;;;11.70;99.90;;;;;;5096182;28;20595;-78
2021/01/21 01:05:06;;;;;;;2.37;1.30;;;11.70;99.90;;;;;;5098794;28;20201;-78
2021/01/21 01:07:33;;;;;;;3.13;1.00;;;11.60;99.90;;;;;;5095960;28;20548;-77
2021/01/21 01:09:59;;;;;;;1.93;1.20;;;11.50;99.90;;;;;;5096921;28;20548;-77
2021/01/21 01:12:26;;;;;;;4.17;1.00;;;11.50;99.90;;;;;;5094867;28;20239;-78
2021/01/21 01:14:52;;;;;;;3.27;1.03;;;11.60;99.90;;;;;;5094601;28;20591;-77
2021/01/21 01:17:19;;;;;;;2.90;1.10;;;11.70;99.90;;;;;;5094100;28;20614;-77
2021/01/21 01:19:46;;;;;;;2.73;0.90;;;11.90;99.90;;;;;;5095505;28;20201;-77
2021/01/21 01:22:13;;;;;;;4.97;1.53;;;11.90;99.90;;;;;;5096145;28;20420;-77
2021/01/21 01:24:39;;;;;;;2.10;1.00;;;11.90;99.90;;;;;;5094908;28;20205;-77
2021/01/21 01:27:07;;;;;;;2.10;1.00;;;11.90;99.90;;;;;;5094659;28;22492;-77
2021/01/21 01:29:34;;;;;;;3.13;1.20;;;11.90;99.90;;;;;;5093437;28;20656;-78
2021/01/21 01:32:00;;;;;;;2.67;0.80;;;12.00;99.90;;;;;;5097395;28;20199;-77
2021/01/21 01:34:27;;;;;;;2.10;1.03;;;11.90;99.90;;;;;;5097061;27;20218;-77
2021/01/21 01:36:53;;;;;;;3.10;1.30;;;11.70;99.90;;;;;;5097219;28;20229;-77
2021/01/21 01:39:20;;;;;;;3.00;1.27;;;11.50;99.90;;;;;;5096519;28;20206;-77
2021/01/21 01:41:47;;;;;;;4.17;1.10;;;11.20;99.90;;;;;;5094745;28;20205;-78
2021/01/21 01:44:13;;;;;;;1.80;1.10;;;11.00;99.90;;;;;;5094927;28;20201;-78
2021/01/21 01:46:40;;;;;;;3.77;1.40;;;10.80;99.90;;;;;;5094286;28;20282;-77
2021/01/21 01:49:06;;;;;;;4.27;1.40;;;10.60;99.90;;;;;;5097379;28;20278;-79
2021/01/21 01:51:35;;;;;;;3.47;1.40;;;10.50;99.90;;;;;;5094404;28;20201;-77
2021/01/21 01:54:03;;;;;;;2.97;1.00;;;10.40;99.90;;;;;;5094607;28;20315;-80
2021/01/21 01:56:31;;;;;;;4.77;1.20;;;10.50;99.90;;;;;;5095680;28;20205;-80
2021/01/21 01:58:58;;;;;;;2.60;1.30;;;10.50;99.90;;;;;;5094361;28;20292;-79
2021/01/21 02:01:25;;;;;;;1.60;0.90;;;10.60;99.90;;;;;;5094877;28;20209;-79
2021/01/21 02:03:52;;;;;;;2.00;1.07;;;10.70;99.90;;;;;;5093317;28;20211;-79
2021/01/21 02:06:18;;;;;;;5.37;1.10;;;10.90;99.90;;;;;;5092801;28;20638;-80
2021/01/21 02:08:46;;;;;;;4.33;1.20;;;10.80;99.90;;;;;;5095565;28;20635;-79
2021/01/21 02:11:23;;;;;;;1.93;1.00;;;10.80;99.90;;;;;;5096127;28;20715;-79
2021/01/21 02:13:58;;;;;;;3.17;1.10;;;10.80;99.90;;;;;;5094352;28;20228;-79
2021/01/21 02:16:39;;;;;;;3.53;1.03;;;10.70;99.90;;;;;;5094910;28;20735;-79
2021/01/21 02:19:36;;;;;;;2.83;1.10;;;10.80;99.90;;;;;;5095505;28;20209;-79
2021/01/21 02:22:26;;;;;;;2.00;1.10;;;10.80;99.90;;;;;;5096636;27;20308;-79
2021/01/21 02:25:13;;;;;;;2.83;1.47;;;10.90;99.90;;;;;;5103874;27;20208;-79
2021/01/21 02:28:31;;;;;;;2.33;1.50;;;10.90;99.90;;;;;;5121996;27;20610;-79
2021/01/21 02:31:04;;;;;;;2.47;0.90;;;10.90;99.90;;;;;;5108086;28;20285;-79
2021/01/21 02:33:54;;;;;;;2.77;1.10;;;11.00;99.90;;;;;;5113632;28;20226;-80
2021/01/21 02:36:26;;;;;;;1.83;0.83;;;11.00;99.90;;;;;;5110105;28;20202;-79
2021/01/21 02:38:54;;;;;;;3.50;1.00;;;10.90;99.90;;;;;;5113325;28;20607;-79
2021/01/21 02:41:22;;;;;;;1.97;1.00;;;10.80;99.90;;;;;;5113135;28;20203;-79
2021/01/21 02:43:52;;;;;;;2.93;1.10;;;10.60;99.90;;;;;;5113149;28;20218;-79
2021/01/21 02:46:20;;;;;;;3.70;1.37;;;10.60;99.90;;;;;;5112920;28;20206;-79
2021/01/21 02:48:48;;;;;;;3.53;1.23;;;10.40;99.90;;;;;;5113002;28;20526;-79
2021/01/21 02:51:22;;;;;;;2.57;1.03;;;10.40;99.90;;;;;;5113406;28;20290;-79
2021/01/21 02:54:01;;;;;;;2.53;1.13;;;10.30;99.90;;;;;;5113003;28;20231;-79
2021/01/21 02:56:28;;;;;;;2.00;1.00;;;10.30;99.90;;;;;;5107706;28;20214;-78
2021/01/21 02:58:56;;;;;;;1.87;1.00;;;10.30;99.90;;;;;;5112959;28;20220;-78
2021/01/21 03:01:23;;;;;;;1.93;1.10;;;10.40;99.90;;;;;;5112820;28;20283;-78
2021/01/21 03:03:52;;;;;;;3.03;1.10;;;10.40;99.90;;;;;;5112721;27;20206;-78
2021/01/21 03:06:20;;;;;;;4.23;1.10;;;10.40;99.90;;;;;;5113166;28;20346;-78
2021/01/21 03:08:46;;;;;;;2.57;1.00;;;10.40;99.90;;;;;;5113152;28;20277;-79
2021/01/21 03:11:14;;;;;;;3.87;1.10;;;10.50;99.90;;;;;;5112625;28;20223;-79
2021/01/21 03:13:42;;;;;;;2.63;0.80;;;10.50;99.90;;;;;;5112534;28;20212;-79
2021/01/21 03:16:08;;;;;;;4.90;0.90;;;10.60;99.90;;;;;;5112595;28;20198;-79
2021/01/21 03:18:35;;;;;;;3.93;0.60;;;10.30;99.90;;;;;;5113059;28;20194;-79
2021/01/21 03:21:02;;;;;;;2.73;0.60;;;9.20;99.90;;;;;;5113473;28;20200;-78
2021/01/21 03:23:28;;;;;;;1.93;0.40;;;8.50;99.90;;;;;;5114317;28;20286;-79
2021/01/21 03:25:54;;;;;;;1.97;0.73;;;8.10;99.90;;;;;;5113345;28;20204;-79
2021/01/21 03:28:21;;;;;;;2.27;0.73;;;7.80;99.90;;;;;;5113249;28;20192;-79
2021/01/21 03:30:47;;;;;;;4.73;0.73;;;7.60;99.90;;;;;;5112474;28;20218;-79
2021/01/21 03:33:14;;;;;;;3.53;0.67;;;7.50;99.90;;;;;;5112857;28;20244;-79
2021/01/21 03:35:40;;;;;;;3.67;0.53;;;7.40;99.90;;;;;;5113125;28;20198;-79
2021/01/21 03:38:07;;;;;;;4.13;0.60;;;7.30;99.90;;;;;;5112779;28;20196;-80
2021/01/21 03:40:33;;;;;;;3.23;0.40;;;7.30;99.90;;;;;;5112604;28;20211;-79
2021/01/21 03:43:00;;;;;;;4.90;0.40;;;7.20;99.90;;;;;;5112525;28;20200;-80
2021/01/21 03:45:26;;;;;;;6.87;1.17;;;7.10;99.90;;;;;;5113022;28;20203;-79
2021/01/21 03:47:52;;;;;;;3.17;0.20;;;7.00;99.90;;;;;;5112849;28;20308;-79
2021/01/21 03:50:19;;;;;;;2.37;0.60;;;7.00;99.90;;;;;;5112636;28;20204;-79
2021/01/21 03:52:45;;;;;;;1.63;0.47;;;7.00;99.90;;;;;;5112635;28;20205;-78
2021/01/21 03:55:13;;;;;;;3.30;0.50;;;7.00;99.90;;;;;;5112497;28;20245;-78
2021/01/21 03:57:39;;;;;;;4.97;0.47;;;6.90;99.90;;;;;;5112583;28;20217;-79
2021/01/21 04:00:06;;;;;;;2.53;0.63;;;6.90;99.90;;;;;;5112594;28;20508;-79
2021/01/21 04:02:33;;;;;;;3.93;0.70;;;6.90;99.90;;;;;;5112425;28;20291;-78
2021/01/21 04:04:59;;;;;;;4.17;0.70;;;6.90;99.90;;;;;;5112713;28;20204;-79
2021/01/21 04:07:25;;;;;;;2.17;0.57;;;6.80;99.90;;;;;;5112699;28;20291;-79
2021/01/21 04:09:52;;;;;;;3.80;0.60;;;6.80;99.90;;;;;;5112318;28;20217;-79
2021/01/21 04:12:19;;;;;;;5.60;0.60;;;6.80;99.90;;;;;;5112300;28;20311;-79
2021/01/21 04:14:45;;;;;;;3.47;0.50;;;6.80;99.90;;;;;;5112435;28;20222;-79
2021/01/21 04:17:12;;;;;;;4.90;0.80;;;6.70;99.90;;;;;;5116350;28;20210;-79
2021/01/21 04:19:38;;;;;;;4.60;0.60;;;6.70;99.90;;;;;;5116627;28;20206;-79
2021/01/21 04:22:04;;;;;;;4.50;0.57;;;6.60;99.90;;;;;;5115852;28;20720;-80
2021/01/21 04:24:30;;;;;;;4.90;0.67;;;6.70;99.90;;;;;;5115898;28;20210;-79
2021/01/21 04:26:57;;;;;;;5.50;0.90;;;6.70;99.90;;;;;;5116146;28;20314;-79
2021/01/21 04:29:24;;;;;;;4.20;1.00;;;6.70;99.90;;;;;;5116189;28;20204;-79
2021/01/21 04:31:50;;;;;;;4.33;0.60;;;6.60;99.90;;;;;;5116035;28;20208;-79
2021/01/21 04:34:17;;;;;;;5.40;0.80;;;6.70;99.90;;;;;;5115979;27;20273;-79
2021/01/21 04:36:43;;;;;;;4.23;0.80;;;6.70;99.90;;;;;;5116008;28;20201;-79
2021/01/21 04:39:10;;;;;;;3.13;0.40;;;6.70;99.90;;;;;;5115778;28;20499;-79
2021/01/21 04:41:36;;;;;;;4.47;0.50;;;6.70;99.90;;;;;;5115900;28;20300;-79
2021/01/21 04:44:03;;;;;;;4.87;0.77;;;6.80;99.90;;;;;;5115509;28;20341;-79
2021/01/21 04:46:30;;;;;;;4.23;0.67;;;6.80;99.90;;;;;;5115926;28;20243;-79
2021/01/21 04:48:59;;;;;;;5.67;0.60;;;6.80;99.90;;;;;;5114376;28;20254;-79
2021/01/21 04:51:26;;;;;;;4.07;0.67;;;6.80;99.90;;;;;;5116486;28;20229;-79
2021/01/21 04:53:58;;;;;;;3.57;0.60;;;6.80;99.90;;;;;;5116778;28;20219;-79
2021/01/21 04:56:28;;;;;;;3.37;0.47;;;6.90;99.90;;;;;;5116956;28;20210;-79
2021/01/21 04:58:58;;;;;;;5.20;1.20;;;6.80;99.90;;;;;;5116547;28;20632;-79
2021/01/21 05:01:24;;;;;;;8.93;1.13;;;6.90;99.90;;;;;;5115277;28;20217;-80
2021/01/21 05:03:52;;;;;;;6.53;0.90;;;6.90;99.90;;;;;;5115307;28;20223;-79
2021/01/21 05:06:19;;;;;;;4.60;0.70;;;6.90;99.90;;;;;;5114916;28;20195;-79
2021/01/21 05:08:46;;;;;;;6.93;0.93;;;6.90;99.90;;;;;;5115761;28;20211;-79
2021/01/21 05:11:12;;;;;;;6.40;0.90;;;6.90;99.90;;;;;;5114916;28;20348;-79
2021/01/21 05:13:38;;;;;;;5.00;0.83;;;6.90;99.90;;;;;;5115421;28;20240;-79
2021/01/21 05:16:05;;;;;;;12.87;1.27;;;6.80;99.90;;;;;;5115229;28;20281;-79
2021/01/21 05:18:36;;;;;;;8.70;0.77;;;6.70;99.90;;;;;;5114752;28;20198;-79
2021/01/21 05:21:04;;;;;;;10.48;1.30;;;6.70;99.90;;;;;;5114408;28;20802;-79
2021/01/21 05:23:31;;;;;;;8.03;1.23;;;6.70;99.90;;;;;;5114967;28;20196;-79
2021/01/21 05:25:58;;;;;;;11.07;1.00;;;6.60;99.90;;;;;;5114871;28;20642;-79
2021/01/21 05:28:25;;;;;;;8.30;1.40;;;6.60;99.90;;;;;;5113898;28;20290;-79
2021/01/21 05:30:52;;;;;;;7.07;0.70;;;6.50;99.90;;;;;;5114632;28;20282;-79
2021/01/21 05:33:21;;;;;;;6.77;0.73;;;6.50;99.90;;;;;;5114592;28;20205;-79
2021/01/21 05:35:51;;;;;;;5.03;0.80;;;6.50;99.90;;;;;;5114804;28;20235;-79
2021/01/21 05:38:18;;;;;;;7.03;1.10;;;6.40;99.90;;;;;;5114919;28;20205;-79
2021/01/21 05:40:46;;;;;;;5.33;0.80;;;6.40;99.90;;;;;;5114449;28;20559;-79
2021/01/21 05:43:13;;;;;;;7.93;1.20;;;6.40;99.90;;;;;;5114622;28;20214;-79
2021/01/21 05:45:44;;;;;;;7.90;1.13;;;6.40;99.90;;;;;;5113725;28;20195;-79
2021/01/21 05:48:11;;;;;;;6.77;1.30;;;6.30;99.90;;;;;;5112899;28;20199;-79
2021/01/21 05:50:38;;;;;;;6.53;1.03;;;6.30;99.90;;;;;;5113417;28;20667;-79
2021/01/21 05:53:07;;;;;;;6.13;1.00;;;6.30;99.90;;;;;;5113910;28;20203;-80
2021/01/21 05:55:37;;;;;;;11.57;1.20;;;6.30;99.90;;;;;;5113866;28;20225;-79
2021/01/21 05:58:04;;;;;;;10.43;1.13;;;6.40;99.90;;;;;;5114086;28;20200;-78
2021/01/21 06:00:32;;;;;;;8.17;1.13;;;6.40;99.90;;;;;;5113877;28;20267;-79
2021/01/21 06:02:59;;;;;;;5.40;0.90;;;6.50;99.90;;;;;;5114142;28;20221;-79
2021/01/21 06:05:27;;;;;;;7.03;1.43;;;6.50;99.90;;;;;;5114031;28;20224;-79
2021/01/21 06:07:53;;;;;;;6.67;1.27;;;6.50;99.90;;;;;;5113685;28;20617;-79
2021/01/21 06:10:21;;;;;;;9.60;1.70;;;6.50;99.90;;;;;;5113894;28;20740;-79
2021/01/21 06:12:50;;;;;;;8.33;1.40;;;6.60;99.90;;;;;;5104437;28;20678;-79
2021/01/21 06:15:17;;;;;;;10.20;1.17;;;6.50;99.90;;;;;;5100557;27;20743;-79
2021/01/21 06:17:45;;;;;;;9.03;1.27;;;6.50;99.90;;;;;;5104806;28;20200;-79
2021/01/21 06:20:12;;;;;;;8.73;1.47;;;6.60;99.90;;;;;;5112625;28;20196;-79
2021/01/21 06:22:40;;;;;;;3.90;0.93;;;6.60;99.90;;;;;;5109729;28;20275;-79
2021/01/21 06:25:11;;;;;;;11.20;1.43;;;6.50;99.90;;;;;;5101893;28;20246;-79
2021/01/21 06:27:41;;;;;;;8.73;1.10;;;6.50;99.90;;;;;;5101268;28;20206;-80
2021/01/21 06:30:13;;;;;;;10.37;1.43;;;6.50;99.90;;;;;;5112974;28;20303;-79
2021/01/21 06:32:47;;;;;;;7.40;1.40;;;6.40;99.90;;;;;;5105541;28;20200;-79
2021/01/21 06:35:19;;;;;;;6.33;1.30;;;6.30;99.90;;;;;;5113126;28;20757;-79
2021/01/21 06:37:49;;;;;;;15.00;1.63;;;6.30;99.90;;;;;;5105101;28;20359;-80
2021/01/21 06:40:17;;;;;;;8.60;1.87;;;6.20;99.90;;;;;;5104585;28;20663;-79
2021/01/21 06:42:56;;;;;;;12.60;1.30;;;6.20;99.90;;;;;;5112568;28;20203;-79
2021/01/21 06:45:23;;;;;;;7.93;1.27;;;6.20;99.90;;;;;;5113016;28;20201;-79
2021/01/21 06:47:50;;;;;;;13.57;1.10;;;6.10;99.90;;;;;;5112825;28;20203;-80
2021/01/21 06:50:18;;;;;;;8.83;1.30;;;6.10;99.90;;;;;;5104316;28;20204;-79
2021/01/21 06:52:45;;;;;;;9.20;1.03;;;6.00;99.90;;;;;;5111965;28;20202;-81
2021/01/21 06:55:12;;;;;;;13.80;1.50;;;6.00;99.90;;;;;;5111874;28;20413;-79
2021/01/21 06:57:43;;;;;;;11.57;1.40;;;6.00;99.90;;;;;;5113623;28;20210;-80
2021/01/21 07:00:11;;;;;;;12.70;1.47;;;6.00;99.90;;;;;;5113122;28;20200;-79
2021/01/21 07:02:46;;;;;;;17.33;1.63;;;6.00;99.90;;;;;;5112912;28;20195;-79
2021/01/21 07:05:15;;;;;;;7.33;1.30;;;6.00;99.90;;;;;;5110341;28;20203;-79
2021/01/21 07:08:01;;;;;;;12.93;1.63;;;6.10;99.90;;;;;;5113170;28;20194;-79
2021/01/21 07:10:34;;;;;;;8.80;1.60;;;6.30;99.90;;;;;;5113542;28;20295;-79
2021/01/21 07:13:03;;;;;;;12.53;1.40;;;6.30;99.90;;;;;;5112252;28;20207;-79
2021/01/21 07:15:34;;;;;;;10.90;1.80;;;6.40;99.90;;;;;;5109704;28;20754;-79
2021/01/21 07:18:03;;;;;;;6.80;1.23;;;6.40;99.90;;;;;;5111529;28;20699;-79
2021/01/21 07:20:31;;;;;;;9.80;1.20;;;6.50;99.90;;;;;;5113249;28;20207;-79
2021/01/21 07:23:03;;;;;;;9.97;1.97;;;6.60;99.90;;;;;;5113116;28;20195;-79
2021/01/21 07:25:30;;;;;;;9.87;1.40;;;6.60;99.90;;;;;;5113148;28;20190;-79
2021/01/21 07:27:57;;;;;;;9.23;1.30;;;6.60;99.90;;;;;;5113209;28;20199;-79
2021/01/21 07:30:25;;;;;;;5.90;1.03;;;6.70;99.90;;;;;;5112839;28;20223;-79
2021/01/21 07:33:20;;;;;;;8.60;1.10;;;6.80;99.90;;;;;;5113100;28;20656;-79
2021/01/21 07:35:47;;;;;;;9.77;1.27;;;6.90;99.90;;;;;;5113009;28;20588;-79
2021/01/21 07:38:46;;;;;;;7.90;1.30;;;7.00;99.90;;;;;;5112733;28;20207;-79
2021/01/21 07:41:55;;;;;;;5.77;1.47;;;7.00;99.90;;;;;;5121671;28;20228;-80
2021/01/21 07:44:21;;;;;;;11.10;1.60;;;7.00;99.90;;;;;;5105091;28;20228;-78
2021/01/21 07:46:48;;;;;;;5.00;0.97;;;7.00;99.90;;;;;;5120625;27;20195;-79
2021/01/21 07:49:28;;;;;;;6.93;1.87;;;7.00;99.90;;;;;;5134600;27;20229;-79
2021/01/21 07:52:03;;;;;;;10.33;1.70;;;6.90;99.90;;;;;;5137613;27;20186;-79
2021/01/21 07:54:30;;;;;;;8.80;1.30;;;6.90;99.90;;;;;;5137726;27;20215;-79
2021/01/21 07:56:57;;;;;;;7.90;0.90;;;6.90;99.90;;;;;;5137462;27;20696;-79
2021/01/21 07:59:24;;;;;;;8.63;1.50;;;6.90;99.90;;;;;;5120019;27;20227;-79
2021/01/21 08:01:58;;;;;;;6.87;1.00;;;7.00;99.90;;;;;;5115969;28;20206;-79
2021/01/21 08:04:24;;;;;;;9.63;1.03;;;7.10;99.90;;;;;;5116657;28;20211;-79
2021/01/21 08:06:56;;;;;;;10.77;1.20;;;7.20;99.90;;;;;;5114424;28;20203;-79
2021/01/21 08:09:22;;;;;;;7.17;0.87;;;7.20;99.90;;;;;;5098366;27;20245;-79
2021/01/21 08:11:49;;;;;;;7.07;1.00;;;7.30;99.90;;;;;;5136271;27;20218;-79
2021/01/21 08:14:16;;;;;;;7.70;1.30;;;7.30;99.90;;;;;;5137179;27;20223;-79
2021/01/21 08:16:43;;;;;;;6.70;1.17;;;7.10;99.90;;;;;;5136863;27;20531;-78
2021/01/21 08:19:10;;;;;;;5.27;1.03;;;7.00;99.90;;;;;;5137029;27;20199;-79
2021/01/21 08:21:37;;;;;;;10.50;1.20;;;7.00;99.90;;;;;;5121496;27;20210;-79
2021/01/21 08:24:08;;;;;;;7.80;1.27;;;7.00;99.90;;;;;;5116255;28;20303;-79
2021/01/21 08:26:36;;;;;;;7.95;1.52;;;7.10;99.90;;;;;;5115357;28;20965;-79
2021/01/21 08:29:03;;;;;;;4.77;1.23;;;7.30;99.90;;;;;;5116454;28;20208;-79
2021/01/21 08:31:39;;;;;;;12.07;1.50;;;7.30;99.90;;;;;;5116011;28;20291;-79
2021/01/21 08:34:08;;;;;;;6.67;1.10;;;7.40;99.90;;;;;;5116191;28;20295;-79
2021/01/21 08:36:35;;;;;;;11.20;1.13;;;7.40;99.90;;;;;;5116220;28;20202;-79
2021/01/21 08:39:04;;;;;;;9.23;1.23;;;7.50;99.90;;;;;;5132244;27;20196;-78
2021/01/21 08:41:31;;;;;;;5.47;1.13;;;7.50;99.90;;;;;;5136518;27;20207;-79
2021/01/21 08:44:00;;;;;;;4.77;1.00;;;7.50;99.90;;;;;;5136813;27;20203;-79
2021/01/21 08:46:27;;;;;;;3.27;0.87;;;7.40;99.90;;;;;;5135953;27;20195;-79
2021/01/21 08:48:54;;;;;;;6.77;1.37;;;7.30;99.90;;;;;;5136731;27;20200;-79
2021/01/21 08:51:34;;;;;;;9.70;1.30;;;7.30;99.90;;;;;;5122245;27;20227;-79
2021/01/21 08:54:13;;;;;;;6.37;1.17;;;7.20;99.90;;;;;;5117190;28;20195;-79
2021/01/21 08:56:40;;;;;;;5.30;0.80;;;7.30;99.90;;;;;;5115377;28;20282;-79
2021/01/21 08:59:29;;;;;;;10.93;1.87;;;7.50;99.90;;;;;;5116005;28;20286;-79
2021/01/21 09:01:56;;;;;;;12.27;1.93;;;7.70;99.90;;;;;;5114810;28;20283;-79
2021/01/21 09:04:24;;;;;;;7.57;1.00;;;7.70;99.90;;;;;;5115552;28;20283;-79
2021/01/21 09:06:55;;;;;;;6.43;0.80;;;7.70;99.90;;;;;;5130685;27;20206;-79
2021/01/21 09:09:33;;;;;;;7.93;1.80;;;7.60;99.90;;;;;;5137785;27;20295;-79
2021/01/21 09:12:14;;;;;;;4.03;0.90;;;7.50;99.90;;;;;;5137390;27;20202;-79
2021/01/21 09:14:41;;;;;;;5.27;1.20;;;7.40;99.90;;;;;;5137095;27;20235;-79
2021/01/21 09:17:13;;;;;;;11.27;1.20;;;7.30;99.90;;;;;;5136283;27;20199;-79
2021/01/21 09:19:42;;;;;;;9.17;1.20;;;7.30;99.90;;;;;;5136677;27;20281;-80
2021/01/21 09:22:11;;;;;;;10.10;1.37;;;7.30;99.90;;;;;;5119348;27;20191;-79
2021/01/21 09:24:57;;;;;;;6.40;1.40;;;7.30;99.90;;;;;;5115390;28;20192;-80
2021/01/21 09:27:24;;;;;;;7.07;1.00;;;7.30;99.90;;;;;;5115373;28;20229;-79
2021/01/21 09:29:52;;;;;;;10.60;1.20;;;7.20;99.90;;;;;;5114820;28;20301;-79
2021/01/21 09:32:19;;;;;;;8.93;1.37;;;7.20;99.90;;;;;;5114689;28;20643;-79
2021/01/21 09:34:57;;;;;;;8.27;1.10;;;7.30;99.90;;;;;;5128812;27;20212;-79
2021/01/21 09:37:24;;;;;;;9.87;1.30;;;7.30;99.90;;;;;;5135477;27;20201;-79
2021/01/21 09:39:51;;;;;;;8.53;1.40;;;7.40;99.90;;;;;;5135642;27;20221;-79
2021/01/21 09:42:21;;;;;;;12.23;2.20;;;7.40;99.90;;;;;;5134829;27;20207;-79
2021/01/21 09:44:47;;;;;;;3.83;1.00;;;7.60;99.90;;;;;;5135468;27;20192;-79
2021/01/21 09:47:13;;;;;;;9.23;1.97;;;7.70;99.90;;;;;;5134604;27;20291;-79
2021/01/21 09:49:42;;;;;;;9.40;2.40;;;7.80;99.90;;;;;;5134618;27;20290;-78
2021/01/21 09:52:08;;;;;;;6.43;1.50;;;7.90;99.90;;;;;;5131597;27;20195;-79
2021/01/21 09:54:35;;;;;;;4.77;1.40;;;8.10;99.90;;;;;;5113951;28;20692;-78
2021/01/21 09:57:01;;;;;;;6.27;0.87;;;8.10;99.90;;;;;;5114340;28;20203;-79
2021/01/21 09:59:29;;;;;;;6.50;1.20;;;8.20;99.90;;;;;;5114113;28;20660;-78
2021/01/21 10:01:55;;;;;;;6.97;1.20;;;8.40;99.90;;;;;;5131546;27;20195;-79
2021/01/21 10:04:21;;;;;;;8.27;1.37;;;8.50;99.90;;;;;;5132847;27;20674;-79
2021/01/21 10:06:48;;;;;;;9.47;1.40;;;8.60;99.90;;;;;;5113898;28;20274;-79
2021/01/21 10:09:15;;;;;;;7.70;1.10;;;8.60;99.90;;;;;;5115514;27;20285;-79
2021/01/21 10:11:41;;;;;;;7.03;1.33;;;8.70;99.90;;;;;;5122595;27;20199;-78
2021/01/21 10:14:08;;;;;;;3.67;0.90;;;8.70;99.90;;;;;;5118664;27;20655;-79
2021/01/21 10:16:35;;;;;;;8.10;1.20;;;8.70;99.90;;;;;;5123461;27;20666;-80
2021/01/21 10:19:01;;;;;;;7.10;1.07;;;8.70;99.90;;;;;;5122146;27;20190;-78
2021/01/21 10:21:28;;;;;;;5.77;1.10;;;8.60;99.90;;;;;;5121294;27;20287;-78
2021/01/21 10:23:54;;;;;;;6.77;1.40;;;8.60;99.90;;;;;;5125632;27;20595;-80
2021/01/21 10:26:21;;;;;;;7.53;1.20;;;8.70;99.90;;;;;;5121978;27;20194;-78
2021/01/21 10:28:48;;;;;;;6.77;1.40;;;8.70;99.90;;;;;;5119888;27;20290;-78
2021/01/21 10:31:14;;;;;;;7.97;1.03;;;8.80;99.90;;;;;;5122045;27;20219;-78
2021/01/21 10:33:43;;;;;;;9.33;1.00;;;8.90;99.90;;;;;;5122180;27;20223;-78
2021/01/21 10:36:10;;;;;;;7.10;1.00;;;8.90;99.90;;;;;;5118686;27;20661;-78
2021/01/21 10:38:37;;;;;;;7.30;1.80;;;8.90;99.90;;;;;;5114293;27;20286;-77
2021/01/21 10:41:04;;;;;;;6.50;0.77;;;8.80;99.90;;;;;;5120215;27;20192;-78
2021/01/21 10:43:30;;;;;;;3.00;1.10;;;8.80;99.90;;;;;;5123585;27;20247;-78
2021/01/21 10:45:57;;;;;;;8.23;1.90;;;8.90;99.90;;;;;;5122820;27;20250;-78
2021/01/21 10:48:23;;;;;;;4.90;0.70;;;8.90;99.90;;;;;;5118863;27;20279;-78
2021/01/21 10:50:50;;;;;;;11.10;1.13;;;8.90;99.90;;;;;;5123388;27;20666;-78
2021/01/21 10:53:17;;;;;;;10.43;1.47;;;8.90;99.90;;;;;;5123155;27;20188;-78
2021/01/21 10:55:43;;;;;;;6.03;1.10;;;8.90;99.90;;;;;;5121622;27;20586;-78
2021/01/21 10:58:09;;;;;;;4.77;1.07;;;9.00;99.90;;;;;;5123900;27;20192;-78
2021/01/21 11:00:36;;;;;;;6.27;1.27;;;9.00;99.90;;;;;;5122928;27;20190;-78
2021/01/21 11:03:03;;;;;;;8.10;0.83;;;9.10;99.90;;;;;;5121969;27;20305;-78
2021/01/21 11:05:29;;;;;;;8.73;1.30;;;9.20;99.90;;;;;;5119179;27;20283;-78
2021/01/21 11:07:57;;;;;;;11.23;1.20;;;9.30;99.90;;;;;;5115417;27;20295;-77
2021/01/21 11:10:23;;;;;;;6.97;0.77;;;9.30;99.90;;;;;;5123294;27;20287;-78
2021/01/21 11:12:49;;;;;;;5.43;1.30;;;9.10;99.90;;;;;;5121595;27;20287;-78
2021/01/21 11:15:16;;;;;;;8.47;1.20;;;9.00;99.90;;;;;;5122802;27;20223;-78
2021/01/21 11:17:44;;;;;;;6.13;1.10;;;9.00;99.90;;;;;;5122924;27;20201;-78
2021/01/21 11:20:12;;;;;;;5.10;1.20;;;9.00;99.90;;;;;;5121262;27;20227;-78
2021/01/21 11:22:38;;;;;;;8.43;1.77;;;9.00;99.90;;;;;;5121941;28;20265;-78
2021/01/21 11:25:08;;;;;;;8.00;1.20;;;9.10;99.90;;;;;;5121744;27;20537;-78
2021/01/21 11:27:34;;;;;;;7.43;1.00;;;9.10;99.90;;;;;;5118772;28;20666;-79
2021/01/21 11:30:01;;;;;;;7.40;0.87;;;9.10;99.90;;;;;;5118489;27;20555;-79
2021/01/21 11:32:27;;;;;;;6.27;1.10;;;9.00;99.90;;;;;;5120734;28;20523;-79
2021/01/21 11:34:53;;;;;;;6.93;1.00;;;9.20;99.90;;;;;;5115018;28;20222;-79
2021/01/21 11:37:20;;;;;;;8.40;1.17;;;9.10;99.90;;;;;;5121008;28;20747;-79
2021/01/21 11:39:46;;;;;;;5.07;1.03;;;9.10;99.90;;;;;;5122610;28;20282;-79
2021/01/21 11:42:13;;;;;;;6.53;1.00;;;9.20;99.90;;;;;;5114478;28;20240;-80
2021/01/21 11:44:40;;;;;;;5.93;1.10;;;9.30;99.90;;;;;;5117008;28;20256;-79
2021/01/21 11:47:07;;;;;;;9.23;0.87;;;9.40;99.90;;;;;;5120358;27;20228;-79
2021/01/21 11:49:33;;;;;;;8.30;1.63;;;9.40;99.90;;;;;;5109877;28;20286;-79
2021/01/21 11:52:00;;;;;;;6.83;1.07;;;9.40;99.90;;;;;;5110446;28;20216;-79
2021/01/21 11:54:26;;;;;;;4.93;1.40;;;9.40;99.90;;;;;;5110325;28;20665;-79
2021/01/21 11:56:52;;;;;;;8.90;0.97;;;9.40;99.90;;;;;;5099965;28;20675;-78
2021/01/21 11:59:20;;;;;;;5.43;1.00;;;9.50;99.90;;;;;;5109450;28;20282;-79
2021/01/21 12:01:46;;;;;;;10.47;1.33;;;9.50;99.90;;;;;;5131033;27;20196;-78
2021/01/21 12:04:13;;;;;;;6.20;1.20;;;9.60;99.90;;;;;;5127070;27;20259;-78
2021/01/21 12:06:40;;;;;;;6.60;1.00;;;9.70;99.90;;;;;;5096178;28;20230;-79
2021/01/21 12:09:06;;;;;;;5.80;1.03;;;9.70;99.90;;;;;;5109652;28;21003;-79
2021/01/21 12:11:34;;;;;;;3.43;1.03;;;9.70;99.90;;;;;;5110917;28;20714;-79
2021/01/21 12:14:01;;;;;;;6.80;1.10;;;9.70;99.90;;;;;;5125279;28;20207;-78
2021/01/21 12:16:28;;;;;;;7.30;1.20;;;9.60;99.90;;;;;;5130208;28;20223;-78
2021/01/21 12:18:55;;;;;;;6.83;1.23;;;9.60;99.90;;;;;;5115101;28;20725;-78
2021/01/21 12:21:21;;;;;;;6.27;1.00;;;9.60;99.90;;;;;;5116212;28;20244;-79
2021/01/21 12:23:48;;;;;;;7.17;1.00;;;9.60;99.90;;;;;;5103506;27;20287;-79
2021/01/21 12:26:15;;;;;;;8.07;1.50;;;9.60;99.90;;;;;;5100082;28;20762;-80
2021/01/21 12:28:41;;;;;;;10.23;1.40;;;9.70;99.90;;;;;;5125084;28;20203;-79
2021/01/21 12:31:08;;;;;;;9.33;1.27;;;9.70;99.90;;;;;;5117614;28;20234;-79
2021/01/21 12:33:35;;;;;;;5.50;1.30;;;9.70;99.90;;;;;;5118915;27;20198;-79
2021/01/21 12:36:04;;;;;;;4.93;1.13;;;9.70;99.90;;;;;;5108680;28;20688;-79
2021/01/21 12:38:30;;;;;;;7.13;1.20;;;9.80;99.90;;;;;;5117041;27;20231;-78
2021/01/21 12:40:57;;;;;;;5.73;1.70;;;9.70;99.90;;;;;;5118942;27;20196;-79
2021/01/21 12:43:23;;;;;;;8.90;1.40;;;9.70;99.90;;;;;;5129145;27;20200;-79
2021/01/21 12:45:50;;;;;;;6.60;1.70;;;9.80;99.90;;;;;;5119062;27;20205;-79
2021/01/21 12:48:16;;;;;;;6.20;1.40;;;9.90;99.90;;;;;;5114890;27;20201;-79
2021/01/21 12:50:44;;;;;;;8.57;1.30;;;9.90;99.90;;;;;;5118155;27;20200;-79
2021/01/21 12:53:10;;;;;;;6.67;1.10;;;9.80;99.90;;;;;;5114941;27;20200;-79
2021/01/21 12:55:37;;;;;;;7.13;1.27;;;9.70;99.90;;;;;;5113582;27;20642;-79
2021/01/21 12:58:04;;;;;;;5.60;1.00;;;9.60;99.90;;;;;;5115157;27;20334;-79
2021/01/21 13:00:31;;;;;;;6.80;0.90;;;9.60;99.90;;;;;;5114455;27;20202;-79